sensor_id;sensor_type;location;lat;lon;timestamp;temperature;humidity
16388;DHT22;8303;53.446;9.988;2023-03-14T05:46:22;10.30;1.00
16388;DHT22;8303;53.446;9.988;2023-03-14T05:48:49;10.30;1.00
16388;DHT22;8303;53.446;9.988;2023-03-14T05:51:16;10.40;1.00
16388;DHT22;8303;53.446;9.988;2023-03-14T05:53:43;10.40;1.00
16388;DHT22;8303;53.446;9.988;2023-03-14T05:56:12;10.40;1.00
16388;DHT22;8303;53.446;9.988;2023-03-14T05:58:39;10.40;1.00
16388;DHT22;8303;53.446;9.988;2023-03-14T06:01:07;10.30;1.00
16388;DHT22;8303;53.446;9.988;2023-03-14T06:03:35;10.30;1.00
16388;DHT22;8303;53.446;9.988;2023-03-14T06:06:02;10.40;1.00
16388;DHT22;8303;53.446;9.988;2023-03-14T06:08:29;10.40;1.00
16388;DHT22;8303;53.446;9.988;2023-03-14T06:10:57;10.40;1.00
16388;DHT22;8303;53.446;9.988;2023-03-14T06:13:24;10.40;99.90
16388;DHT22;8303;53.446;9.988;2023-03-14T06:15:51;10.40;99.90
16388;DHT22;8303;53.446;9.988;2023-03-14T06:18:18;10.40;99.90
16388;DHT22;8303;53.446;9.988;2023-03-14T06:20:46;10.40;99.90
16388;DHT22;8303;53.446;9.988;2023-03-14T06:23:13;10.40;99.90
16388;DHT22;8303;53.446;9.988;2023-03-14T06:25:39;10.30;99.90
16388;DHT22;8303;53.446;9.988;2023-03-14T06:28:06;10.30;1.00
16388;DHT22;8303;53.446;9.988;2023-03-14T06:30:33;10.30;1.00
16388;DHT22;8303;53.446;9.988;2023-03-14T06:33:00;10.20;99.90
16388;DHT22;8303;53.446;9.988;2023-03-14T06:35:27;10.20;99.90
16388;DHT22;8303;53.446;9.988;2023-03-14T06:37:55;10.20;99.90
16388;DHT22;8303;53.446;9.988;2023-03-14T06:40:22;10.20;99.90
16388;DHT22;8303;53.446;9.988;2023-03-14T06:42:49;10.20;99.90
16388;DHT22;8303;53.446;9.988;2023-03-14T06:45:16;10.20;99.90
16388;DHT22;8303;53.446;9.988;2023-03-14T06:47:43;10.20;99.90
16388;DHT22;8303;53.446;9.988;2023-03-14T06:50:10;10.20;99.90
16388;DHT22;8303;53.446;9.988;2023-03-14T06:52:37;10.40;99.90
16388;DHT22;8303;53.446;9.988;2023-03-14T06:55:08;10.50;99.90
16388;DHT22;8303;53.446;9.988;2023-03-14T06:57:35;10.70;99.90
16388;DHT22;8303;53.446;9.988;2023-03-14T07:00:03;10.70;99.90
16388;DHT22;8303;53.446;9.988;2023-03-14T07:02:30;10.70;99.90
16388;DHT22;8303;53.446;9.988;2023-03-14T07:04:57;10.60;99.90
16388;DHT22;8303;53.446;9.988;2023-03-14T07:07:24;10.60;99.90
16388;DHT22;8303;53.446;9.988;2023-03-14T07:09:51;10.60;99.90
16388;DHT22;8303;53.446;9.988;2023-03-14T07:12:19;10.50;99.90
16388;DHT22;8303;53.446;9.988;2023-03-14T07:14:46;10.50;99.90
16388;DHT22;8303;53.446;9.988;2023-03-14T07:17:13;10.40;99.90
16388;DHT22;8303;53.446;9.988;2023-03-14T07:19:40;10.50;99.90
16388;DHT22;8303;53.446;9.988;2023-03-14T07:22:07;10.50;99.90
16388;DHT22;8303;53.446;9.988;2023-03-14T07:24:34;10.70;99.90
16388;DHT22;8303;53.446;9.988;2023-03-14T07:27:00;10.80;99.90
16388;DHT22;8303;53.446;9.988;2023-03-14T07:29:29;10.90;99.90
16388;DHT22;8303;53.446;9.988;2023-03-14T07:31:56;10.90;80.30
16388;DHT22;8303;53.446;9.988;2023-03-14T07:34:23;10.90;75.10
16388;DHT22;8303;53.446;9.988;2023-03-14T07:36:49;11.10;47.40
16388;DHT22;8303;53.446;9.988;2023-03-14T07:39:16;11.10;25.00
16388;DHT22;8303;53.446;9.988;2023-03-14T07:41:43;11.10;21.30
16388;DHT22;8303;53.446;9.988;2023-03-14T07:44:10;11.30;37.00
16388;DHT22;8303;53.446;9.988;2023-03-14T07:46:38;11.40;1.00
16388;DHT22;8303;53.446;9.988;2023-03-14T07:49:05;11.40;1.00
16388;DHT22;8303;53.446;9.988;2023-03-14T07:51:32;11.50;1.00
16388;DHT22;8303;53.446;9.988;2023-03-14T07:53:58;11.40;1.00
16388;DHT22;8303;53.446;9.988;2023-03-14T07:56:25;11.30;1.00
16388;DHT22;8303;53.446;9.988;2023-03-14T07:58:52;11.20;1.00
16388;DHT22;8303;53.446;9.988;2023-03-14T08:01:19;11.10;10.70
16388;DHT22;8303;53.446;9.988;2023-03-14T08:03:47;10.90;38.30
16388;DHT22;8303;53.446;9.988;2023-03-14T08:06:15;10.80;63.20
16388;DHT22;8303;53.446;9.988;2023-03-14T08:08:42;10.80;92.70
16388;DHT22;8303;53.446;9.988;2023-03-14T08:11:09;10.90;99.90
16388;DHT22;8303;53.446;9.988;2023-03-14T08:13:36;10.90;99.90
16388;DHT22;8303;53.446;9.988;2023-03-14T08:16:04;10.90;71.50
16388;DHT22;8303;53.446;9.988;2023-03-14T08:18:31;11.00;38.40
16388;DHT22;8303;53.446;9.988;2023-03-14T08:20:59;11.20;46.20
16388;DHT22;8303;53.446;9.988;2023-03-14T08:23:26;11.20;18.20
16388;DHT22;8303;53.446;9.988;2023-03-14T08:25:53;11.30;4.30
16388;DHT22;8303;53.446;9.988;2023-03-14T08:28:20;11.40;1.00
16388;DHT22;8303;53.446;9.988;2023-03-14T08:30:47;11.50;6.70
16388;DHT22;8303;53.446;9.988;2023-03-14T08:33:14;11.60;1.00
16388;DHT22;8303;53.446;9.988;2023-03-14T08:35:42;11.80;1.00
16388;DHT22;8303;53.446;9.988;2023-03-14T08:38:10;12.00;1.00
16388;DHT22;8303;53.446;9.988;2023-03-14T08:40:37;12.30;1.00
16388;DHT22;8303;53.446;9.988;2023-03-14T08:43:04;12.70;1.00
16388;DHT22;8303;53.446;9.988;2023-03-14T08:45:31;13.10;1.00
16388;DHT22;8303;53.446;9.988;2023-03-14T08:47:58;12.80;1.00
16388;DHT22;8303;53.446;9.988;2023-03-14T08:50:25;12.50;1.00
16388;DHT22;8303;53.446;9.988;2023-03-14T08:52:52;12.30;1.00
16388;DHT22;8303;53.446;9.988;2023-03-14T08:55:21;12.20;1.00
16388;DHT22;8303;53.446;9.988;2023-03-14T08:57:47;12.00;1.00
16388;DHT22;8303;53.446;9.988;2023-03-14T09:00:15;12.00;1.00
16388;DHT22;8303;53.446;9.988;2023-03-14T09:02:43;12.10;1.00
16388;DHT22;8303;53.446;9.988;2023-03-14T09:05:11;12.10;1.00
16388;DHT22;8303;53.446;9.988;2023-03-14T09:07:38;12.20;1.00
16388;DHT22;8303;53.446;9.988;2023-03-14T09:10:06;12.20;1.00
16388;DHT22;8303;53.446;9.988;2023-03-14T09:12:35;12.00;1.00
16388;DHT22;8303;53.446;9.988;2023-03-14T09:15:03;12.10;1.00
16388;DHT22;8303;53.446;9.988;2023-03-14T09:17:30;12.10;1.00
16388;DHT22;8303;53.446;9.988;2023-03-14T09:19:56;11.90;1.00
16388;DHT22;8303;53.446;9.988;2023-03-14T09:22:23;11.80;2.90
16388;DHT22;8303;53.446;9.988;2023-03-14T09:24:51;11.60;93.20
16388;DHT22;8303;53.446;9.988;2023-03-14T09:27:18;11.50;58.00
16388;DHT22;8303;53.446;9.988;2023-03-14T09:29:46;11.50;99.90
16388;DHT22;8303;53.446;9.988;2023-03-14T09:32:13;11.50;99.90
16388;DHT22;8303;53.446;9.988;2023-03-14T09:34:40;11.30;55.10
16388;DHT22;8303;53.446;9.988;2023-03-14T09:37:07;11.30;99.90
16388;DHT22;8303;53.446;9.988;2023-03-14T09:39:34;11.20;99.90
16388;DHT22;8303;53.446;9.988;2023-03-14T09:42:03;11.20;99.90
16388;DHT22;8303;53.446;9.988;2023-03-14T09:44:32;11.20;99.90
16388;DHT22;8303;53.446;9.988;2023-03-14T09:47:04;11.30;99.90
16388;DHT22;8303;53.446;9.988;2023-03-14T09:49:34;11.30;99.90
16388;DHT22;8303;53.446;9.988;2023-03-14T09:52:06;11.30;99.90
16388;DHT22;8303;53.446;9.988;2023-03-14T09:54:39;11.20;99.90
16388;DHT22;8303;53.446;9.988;2023-03-14T09:57:12;11.10;99.90
16388;DHT22;8303;53.446;9.988;2023-03-14T09:59:43;10.90;99.90
16388;DHT22;8303;53.446;9.988;2023-03-14T10:02:17;10.70;1.00
16388;DHT22;8303;53.446;9.988;2023-03-14T10:04:45;9.90;99.90
16388;DHT22;8303;53.446;9.988;2023-03-14T10:07:15;9.10;1.00
16388;DHT22;8303;53.446;9.988;2023-03-14T10:09:45;8.20;1.00
16388;DHT22;8303;53.446;9.988;2023-03-14T10:12:12;7.20;94.90
16388;DHT22;8303;53.446;9.988;2023-03-14T10:14:46;6.90;1.00
16388;DHT22;8303;53.446;9.988;2023-03-14T10:17:15;6.80;1.00
16388;DHT22;8303;53.446;9.988;2023-03-14T10:19:53;6.80;1.00
16388;DHT22;8303;53.446;9.988;2023-03-14T10:22:21;6.70;1.00
16388;DHT22;8303;53.446;9.988;2023-03-14T10:24:52;6.60;1.00
16388;DHT22;8303;53.446;9.988;2023-03-14T10:27:23;6.40;1.00
16388;DHT22;8303;53.446;9.988;2023-03-14T10:29:55;6.30;99.90
16388;DHT22;8303;53.446;9.988;2023-03-14T10:32:30;6.20;99.90
16388;DHT22;8303;53.446;9.988;2023-03-14T10:35:18;6.10;99.90
16388;DHT22;8303;53.446;9.988;2023-03-14T10:37:51;5.80;99.90
16388;DHT22;8303;53.446;9.988;2023-03-14T10:40:24;5.50;99.90
16388;DHT22;8303;53.446;9.988;2023-03-14T10:42:52;5.40;99.90
16388;DHT22;8303;53.446;9.988;2023-03-14T10:45:30;5.30;1.00
16388;DHT22;8303;53.446;9.988;2023-03-14T10:48:07;5.30;1.00
16388;DHT22;8303;53.446;9.988;2023-03-14T10:50:49;5.30;1.00
16388;DHT22;8303;53.446;9.988;2023-03-14T10:53:17;5.30;1.00
16388;DHT22;8303;53.446;9.988;2023-03-14T10:55:45;5.20;99.90
16388;DHT22;8303;53.446;9.988;2023-03-14T10:58:23;5.10;99.90
16388;DHT22;8303;53.446;9.988;2023-03-14T11:01:08;5.00;55.40
16388;DHT22;8303;53.446;9.988;2023-03-14T11:03:42;4.90;1.00
16388;DHT22;8303;53.446;9.988;2023-03-14T11:06:16;5.00;35.20
16388;DHT22;8303;53.446;9.988;2023-03-14T11:08:50;5.00;1.00
16388;DHT22;8303;53.446;9.988;2023-03-14T11:11:23;4.90;99.90
16388;DHT22;8303;53.446;9.988;2023-03-14T11:14:07;4.90;99.90
16388;DHT22;8303;53.446;9.988;2023-03-14T11:16:44;4.70;74.30
16388;DHT22;8303;53.446;9.988;2023-03-14T11:22:28;4.40;1.00
16388;DHT22;8303;53.446;9.988;2023-03-14T11:25:18;4.50;69.60
16388;DHT22;8303;53.446;9.988;2023-03-14T11:27:53;4.70;1.00
16388;DHT22;8303;53.446;9.988;2023-03-14T11:30:25;4.60;1.00
16388;DHT22;8303;53.446;9.988;2023-03-14T11:32:59;4.50;99.90
16388;DHT22;8303;53.446;9.988;2023-03-14T11:35:32;4.30;99.90
16388;DHT22;8303;53.446;9.988;2023-03-14T11:38:09;4.40;99.90
16388;DHT22;8303;53.446;9.988;2023-03-14T11:40:38;4.50;1.00
16388;DHT22;8303;53.446;9.988;2023-03-14T11:43:11;4.50;1.00
16388;DHT22;8303;53.446;9.988;2023-03-14T11:45:42;4.50;1.00
16388;DHT22;8303;53.446;9.988;2023-03-14T11:48:25;4.40;1.00
16388;DHT22;8303;53.446;9.988;2023-03-14T11:50:58;4.40;1.00
16388;DHT22;8303;53.446;9.988;2023-03-14T11:53:39;4.40;99.90
16388;DHT22;8303;53.446;9.988;2023-03-14T11:56:13;4.50;99.90
16388;DHT22;8303;53.446;9.988;2023-03-14T11:58:50;4.70;99.90
16388;DHT22;8303;53.446;9.988;2023-03-14T12:01:21;4.70;1.00
16388;DHT22;8303;53.446;9.988;2023-03-14T12:03:56;4.80;1.00
16388;DHT22;8303;53.446;9.988;2023-03-14T12:06:28;4.90;1.00
16388;DHT22;8303;53.446;9.988;2023-03-14T12:09:00;4.80;1.00
16388;DHT22;8303;53.446;9.988;2023-03-14T12:11:37;4.80;99.90
16388;DHT22;8303;53.446;9.988;2023-03-14T12:14:18;4.90;1.00
16388;DHT22;8303;53.446;9.988;2023-03-14T12:16:46;4.80;99.90
16388;DHT22;8303;53.446;9.988;2023-03-14T12:19:30;4.60;1.00
16388;DHT22;8303;53.446;9.988;2023-03-14T12:22:02;4.60;1.00
16388;DHT22;8303;53.446;9.988;2023-03-14T12:24:35;4.60;1.00
16388;DHT22;8303;53.446;9.988;2023-03-14T12:27:05;4.70;1.00
16388;DHT22;8303;53.446;9.988;2023-03-14T12:29:58;4.80;1.00
16388;DHT22;8303;53.446;9.988;2023-03-14T12:32:25;4.80;1.00
16388;DHT22;8303;53.446;9.988;2023-03-14T12:34:52;4.80;1.00
16388;DHT22;8303;53.446;9.988;2023-03-14T12:37:25;4.70;1.00
16388;DHT22;8303;53.446;9.988;2023-03-14T12:40:06;4.70;1.00
16388;DHT22;8303;53.446;9.988;2023-03-14T12:42:51;4.90;1.00
16388;DHT22;8303;53.446;9.988;2023-03-14T12:45:24;5.10;1.00
16388;DHT22;8303;53.446;9.988;2023-03-14T12:48:10;5.20;1.00
16388;DHT22;8303;53.446;9.988;2023-03-14T12:50:45;5.30;1.00
16388;DHT22;8303;53.446;9.988;2023-03-14T12:53:43;5.30;1.00
16388;DHT22;8303;53.446;9.988;2023-03-14T12:56:22;5.20;1.00
16388;DHT22;8303;53.446;9.988;2023-03-14T13:02:17;5.30;1.00
16388;DHT22;8303;53.446;9.988;2023-03-14T13:04:47;5.00;1.00
16388;DHT22;8303;53.446;9.988;2023-03-14T13:07:33;4.60;1.00
16388;DHT22;8303;53.446;9.988;2023-03-14T13:12:51;4.60;99.90
16388;DHT22;8303;53.446;9.988;2023-03-14T13:15:22;4.60;70.90
16388;DHT22;8303;53.446;9.988;2023-03-14T13:17:51;4.80;1.00
16388;DHT22;8303;53.446;9.988;2023-03-14T13:20:24;5.10;1.00
16388;DHT22;8303;53.446;9.988;2023-03-14T13:22:53;5.40;1.00
16388;DHT22;8303;53.446;9.988;2023-03-14T13:25:20;5.60;1.00
16388;DHT22;8303;53.446;9.988;2023-03-14T13:27:52;5.60;1.00
16388;DHT22;8303;53.446;9.988;2023-03-14T13:30:23;5.70;1.00
16388;DHT22;8303;53.446;9.988;2023-03-14T13:32:51;5.90;1.00
16388;DHT22;8303;53.446;9.988;2023-03-14T13:35:21;5.80;1.00
16388;DHT22;8303;53.446;9.988;2023-03-14T13:37:54;5.80;1.00
16388;DHT22;8303;53.446;9.988;2023-03-14T13:40:26;6.00;1.00
16388;DHT22;8303;53.446;9.988;2023-03-14T13:43:05;5.90;1.00
16388;DHT22;8303;53.446;9.988;2023-03-14T13:45:47;6.00;1.00
16388;DHT22;8303;53.446;9.988;2023-03-14T13:48:14;6.10;1.00
16388;DHT22;8303;53.446;9.988;2023-03-14T13:50:51;6.10;1.00
16388;DHT22;8303;53.446;9.988;2023-03-14T13:53:19;6.10;1.00
16388;DHT22;8303;53.446;9.988;2023-03-14T13:55:47;6.10;1.00
16388;DHT22;8303;53.446;9.988;2023-03-14T13:58:22;6.20;1.00
16388;DHT22;8303;53.446;9.988;2023-03-14T14:01:04;6.40;1.00
16388;DHT22;8303;53.446;9.988;2023-03-14T14:03:34;6.30;1.00
16388;DHT22;8303;53.446;9.988;2023-03-14T14:06:01;6.30;1.00
16388;DHT22;8303;53.446;9.988;2023-03-14T14:08:28;6.40;1.00
16388;DHT22;8303;53.446;9.988;2023-03-14T14:10:59;6.40;1.00
16388;DHT22;8303;53.446;9.988;2023-03-14T14:13:31;6.20;1.00
16388;DHT22;8303;53.446;9.988;2023-03-14T14:16:00;6.10;1.00
16388;DHT22;8303;53.446;9.988;2023-03-14T14:18:29;5.90;1.00
16388;DHT22;8303;53.446;9.988;2023-03-14T14:20:57;6.20;1.00
16388;DHT22;8303;53.446;9.988;2023-03-14T14:23:26;6.50;1.00
16388;DHT22;8303;53.446;9.988;2023-03-14T14:25:55;6.80;1.00
16388;DHT22;8303;53.446;9.988;2023-03-14T14:28:25;6.50;1.00
16388;DHT22;8303;53.446;9.988;2023-03-14T14:31:06;6.30;1.00
16388;DHT22;8303;53.446;9.988;2023-03-14T14:33:44;6.20;1.00
16388;DHT22;8303;53.446;9.988;2023-03-14T14:36:18;6.10;1.00
16388;DHT22;8303;53.446;9.988;2023-03-14T14:38:53;6.30;1.00
16388;DHT22;8303;53.446;9.988;2023-03-14T14:41:20;6.30;1.00
16388;DHT22;8303;53.446;9.988;2023-03-14T14:43:51;5.90;1.00
16388;DHT22;8303;53.446;9.988;2023-03-14T14:46:20;5.90;1.00
16388;DHT22;8303;53.446;9.988;2023-03-14T14:48:47;6.00;1.00
16388;DHT22;8303;53.446;9.988;2023-03-14T14:51:25;6.20;1.00
16388;DHT22;8303;53.446;9.988;2023-03-14T14:54:05;6.30;1.00
16388;DHT22;8303;53.446;9.988;2023-03-14T14:56:37;6.40;1.00
16388;DHT22;8303;53.446;9.988;2023-03-14T14:59:05;6.30;1.00
16388;DHT22;8303;53.446;9.988;2023-03-14T15:01:36;6.20;1.00
16388;DHT22;8303;53.446;9.988;2023-03-14T15:04:10;6.20;1.00
16388;DHT22;8303;53.446;9.988;2023-03-14T15:06:40;6.20;1.00
16388;DHT22;8303;53.446;9.988;2023-03-14T15:09:10;6.20;1.00
16388;DHT22;8303;53.446;9.988;2023-03-14T15:11:37;6.10;1.00
16388;DHT22;8303;53.446;9.988;2023-03-14T15:14:04;6.10;1.00
16388;DHT22;8303;53.446;9.988;2023-03-14T15:16:33;5.90;1.00
16388;DHT22;8303;53.446;9.988;2023-03-14T15:19:02;6.00;1.00
16388;DHT22;8303;53.446;9.988;2023-03-14T15:21:31;6.30;1.00
16388;DHT22;8303;53.446;9.988;2023-03-14T15:23:58;6.60;1.00
16388;DHT22;8303;53.446;9.988;2023-03-14T15:26:26;6.60;1.00
16388;DHT22;8303;53.446;9.988;2023-03-14T15:28:56;6.60;1.00
16388;DHT22;8303;53.446;9.988;2023-03-14T15:31:23;6.70;1.00
16388;DHT22;8303;53.446;9.988;2023-03-14T15:33:52;6.70;1.00
16388;DHT22;8303;53.446;9.988;2023-03-14T15:36:24;6.50;1.00
16388;DHT22;8303;53.446;9.988;2023-03-14T15:38:52;6.70;1.00
16388;DHT22;8303;53.446;9.988;2023-03-14T15:41:19;6.60;1.00
16388;DHT22;8303;53.446;9.988;2023-03-14T15:43:47;6.60;1.00
16388;DHT22;8303;53.446;9.988;2023-03-14T15:46:14;6.50;99.90
16388;DHT22;8303;53.446;9.988;2023-03-14T15:48:43;6.30;99.90
16388;DHT22;8303;53.446;9.988;2023-03-14T15:51:11;6.20;99.90
16388;DHT22;8303;53.446;9.988;2023-03-14T15:53:38;6.30;1.00
16388;DHT22;8303;53.446;9.988;2023-03-14T15:56:06;6.30;99.90
16388;DHT22;8303;53.446;9.988;2023-03-14T15:58:34;6.10;99.90
16388;DHT22;8303;53.446;9.988;2023-03-14T16:01:01;6.00;99.90
16388;DHT22;8303;53.446;9.988;2023-03-14T16:03:28;6.10;99.90
16388;DHT22;8303;53.446;9.988;2023-03-14T16:06:02;6.10;99.90
16388;DHT22;8303;53.446;9.988;2023-03-14T16:08:30;6.00;99.90
16388;DHT22;8303;53.446;9.988;2023-03-14T16:10:58;6.00;99.90
16388;DHT22;8303;53.446;9.988;2023-03-14T16:13:25;5.90;99.90
16388;DHT22;8303;53.446;9.988;2023-03-14T16:15:54;5.80;99.90
16388;DHT22;8303;53.446;9.988;2023-03-14T16:18:21;5.80;99.90
16388;DHT22;8303;53.446;9.988;2023-03-14T16:20:53;5.80;99.90
16388;DHT22;8303;53.446;9.988;2023-03-14T16:23:20;5.90;99.90
16388;DHT22;8303;53.446;9.988;2023-03-14T16:25:49;5.90;99.90
16388;DHT22;8303;53.446;9.988;2023-03-14T16:28:15;5.70;99.90
16388;DHT22;8303;53.446;9.988;2023-03-14T16:30:42;5.60;99.90
16388;DHT22;8303;53.446;9.988;2023-03-14T16:33:09;5.50;99.90
16388;DHT22;8303;53.446;9.988;2023-03-14T16:35:36;5.30;99.90
16388;DHT22;8303;53.446;9.988;2023-03-14T16:38:03;5.20;99.90
16388;DHT22;8303;53.446;9.988;2023-03-14T16:40:30;5.10;99.90
16388;DHT22;8303;53.446;9.988;2023-03-14T16:42:59;5.00;99.90
16388;DHT22;8303;53.446;9.988;2023-03-14T16:45:28;5.00;99.90
16388;DHT22;8303;53.446;9.988;2023-03-14T16:47:55;5.00;99.90
16388;DHT22;8303;53.446;9.988;2023-03-14T16:50:22;5.00;99.90
16388;DHT22;8303;53.446;9.988;2023-03-14T16:52:49;4.90;99.90
16388;DHT22;8303;53.446;9.988;2023-03-14T16:55:16;4.90;99.90
16388;DHT22;8303;53.446;9.988;2023-03-14T16:57:43;4.90;99.90
16388;DHT22;8303;53.446;9.988;2023-03-14T17:00:13;4.80;1.00
16388;DHT22;8303;53.446;9.988;2023-03-14T17:02:40;4.70;99.90
16388;DHT22;8303;53.446;9.988;2023-03-14T17:05:07;4.70;99.90
16388;DHT22;8303;53.446;9.988;2023-03-14T17:07:34;4.60;99.90
16388;DHT22;8303;53.446;9.988;2023-03-14T17:10:01;4.60;99.90
16388;DHT22;8303;53.446;9.988;2023-03-14T17:12:28;4.50;1.00
16388;DHT22;8303;53.446;9.988;2023-03-14T17:14:55;4.40;1.00
16388;DHT22;8303;53.446;9.988;2023-03-14T17:17:23;4.40;1.00
16388;DHT22;8303;53.446;9.988;2023-03-14T17:19:50;4.40;1.00
16388;DHT22;8303;53.446;9.988;2023-03-14T17:22:17;4.40;1.00
16388;DHT22;8303;53.446;9.988;2023-03-14T17:24:44;4.30;1.00
16388;DHT22;8303;53.446;9.988;2023-03-14T17:27:11;4.30;1.00
16388;DHT22;8303;53.446;9.988;2023-03-14T17:29:44;4.30;1.00
16388;DHT22;8303;53.446;9.988;2023-03-14T17:32:11;4.30;1.00
16388;DHT22;8303;53.446;9.988;2023-03-14T17:34:40;4.20;1.00
16388;DHT22;8303;53.446;9.988;2023-03-14T17:37:08;4.20;1.00
16388;DHT22;8303;53.446;9.988;2023-03-14T17:39:34;4.20;1.00
16388;DHT22;8303;53.446;9.988;2023-03-14T17:42:02;4.20;1.00
16388;DHT22;8303;53.446;9.988;2023-03-14T17:44:29;4.20;1.00
16388;DHT22;8303;53.446;9.988;2023-03-14T17:46:57;4.10;1.00
16388;DHT22;8303;53.446;9.988;2023-03-14T17:49:24;4.10;1.00
16388;DHT22;8303;53.446;9.988;2023-03-14T17:51:52;4.10;1.00
16388;DHT22;8303;53.446;9.988;2023-03-14T17:54:19;4.00;1.00
16388;DHT22;8303;53.446;9.988;2023-03-14T17:56:46;3.90;1.00
16388;DHT22;8303;53.446;9.988;2023-03-14T17:59:14;3.90;1.00
16388;DHT22;8303;53.446;9.988;2023-03-14T18:01:41;3.80;1.00
16388;DHT22;8303;53.446;9.988;2023-03-14T18:04:08;3.80;1.00
16388;DHT22;8303;53.446;9.988;2023-03-14T18:06:35;3.80;1.00
16388;DHT22;8303;53.446;9.988;2023-03-14T18:09:03;4.10;1.00
16388;DHT22;8303;53.446;9.988;2023-03-14T18:11:31;4.20;1.00
16388;DHT22;8303;53.446;9.988;2023-03-14T18:13:58;4.30;1.00
16388;DHT22;8303;53.446;9.988;2023-03-14T18:16:26;4.20;1.00
16388;DHT22;8303;53.446;9.988;2023-03-14T18:18:53;4.00;1.00
16388;DHT22;8303;53.446;9.988;2023-03-14T18:21:22;3.80;1.00
16388;DHT22;8303;53.446;9.988;2023-03-14T18:23:49;3.70;1.00
16388;DHT22;8303;53.446;9.988;2023-03-14T18:26:17;3.60;1.00
16388;DHT22;8303;53.446;9.988;2023-03-14T18:28:46;3.60;1.00
16388;DHT22;8303;53.446;9.988;2023-03-14T18:31:13;3.50;1.00
16388;DHT22;8303;53.446;9.988;2023-03-14T18:33:40;3.40;1.00
16388;DHT22;8303;53.446;9.988;2023-03-14T18:36:11;3.40;1.00
16388;DHT22;8303;53.446;9.988;2023-03-14T18:38:38;3.40;1.00
16388;DHT22;8303;53.446;9.988;2023-03-14T18:41:08;3.30;1.00
16388;DHT22;8303;53.446;9.988;2023-03-14T18:43:37;3.30;1.00
16388;DHT22;8303;53.446;9.988;2023-03-14T18:46:04;3.20;1.00
16388;DHT22;8303;53.446;9.988;2023-03-14T18:48:32;3.30;1.00
16388;DHT22;8303;53.446;9.988;2023-03-14T18:50:59;3.20;1.00
16388;DHT22;8303;53.446;9.988;2023-03-14T18:53:26;3.20;1.00
16388;DHT22;8303;53.446;9.988;2023-03-14T18:55:56;3.10;1.00
16388;DHT22;8303;53.446;9.988;2023-03-14T18:58:24;3.10;1.00
16388;DHT22;8303;53.446;9.988;2023-03-14T19:00:56;3.10;1.00
16388;DHT22;8303;53.446;9.988;2023-03-14T19:03:24;3.10;1.00
16388;DHT22;8303;53.446;9.988;2023-03-14T19:05:51;3.10;1.00
16388;DHT22;8303;53.446;9.988;2023-03-14T19:08:19;3.00;1.00
16388;DHT22;8303;53.446;9.988;2023-03-14T19:10:48;3.00;1.00
16388;DHT22;8303;53.446;9.988;2023-03-14T19:13:15;2.90;1.00
16388;DHT22;8303;53.446;9.988;2023-03-14T19:15:42;2.90;1.00
16388;DHT22;8303;53.446;9.988;2023-03-14T19:18:11;2.90;1.00
16388;DHT22;8303;53.446;9.988;2023-03-14T19:20:39;2.90;1.00
16388;DHT22;8303;53.446;9.988;2023-03-14T19:23:07;2.90;1.00
16388;DHT22;8303;53.446;9.988;2023-03-14T19:25:34;2.80;1.00
16388;DHT22;8303;53.446;9.988;2023-03-14T19:28:01;2.80;1.00
16388;DHT22;8303;53.446;9.988;2023-03-14T19:30:28;2.70;1.00
16388;DHT22;8303;53.446;9.988;2023-03-14T19:32:55;2.70;1.00
16388;DHT22;8303;53.446;9.988;2023-03-14T19:35:23;2.70;1.00
16388;DHT22;8303;53.446;9.988;2023-03-14T19:37:50;2.60;1.00
16388;DHT22;8303;53.446;9.988;2023-03-14T19:40:17;2.60;1.00
16388;DHT22;8303;53.446;9.988;2023-03-14T19:42:44;2.50;1.00
16388;DHT22;8303;53.446;9.988;2023-03-14T19:45:11;2.50;1.00
16388;DHT22;8303;53.446;9.988;2023-03-14T19:47:38;2.50;1.00
16388;DHT22;8303;53.446;9.988;2023-03-14T19:50:06;2.50;1.00
16388;DHT22;8303;53.446;9.988;2023-03-14T19:52:35;2.50;1.00
16388;DHT22;8303;53.446;9.988;2023-03-14T19:55:04;2.40;1.00
16388;DHT22;8303;53.446;9.988;2023-03-14T19:57:31;2.40;1.00
16388;DHT22;8303;53.446;9.988;2023-03-14T19:59:58;2.40;1.00
16388;DHT22;8303;53.446;9.988;2023-03-14T20:02:25;2.40;1.00
16388;DHT22;8303;53.446;9.988;2023-03-14T20:04:52;2.40;1.00
16388;DHT22;8303;53.446;9.988;2023-03-14T20:07:19;2.40;1.00
16388;DHT22;8303;53.446;9.988;2023-03-14T20:09:48;2.40;1.00
16388;DHT22;8303;53.446;9.988;2023-03-14T20:12:15;2.40;1.00
16388;DHT22;8303;53.446;9.988;2023-03-14T20:14:42;2.30;1.00
16388;DHT22;8303;53.446;9.988;2023-03-14T20:17:09;2.30;1.00
16388;DHT22;8303;53.446;9.988;2023-03-14T20:19:36;2.30;1.00
16388;DHT22;8303;53.446;9.988;2023-03-14T20:22:03;2.30;1.00
16388;DHT22;8303;53.446;9.988;2023-03-14T20:24:30;2.30;1.00
16388;DHT22;8303;53.446;9.988;2023-03-14T20:26:59;2.30;1.00
16388;DHT22;8303;53.446;9.988;2023-03-14T20:29:26;2.40;1.00
16388;DHT22;8303;53.446;9.988;2023-03-14T20:31:54;2.50;1.00
16388;DHT22;8303;53.446;9.988;2023-03-14T20:34:20;2.60;1.00
16388;DHT22;8303;53.446;9.988;2023-03-14T20:36:48;2.70;1.00
16388;DHT22;8303;53.446;9.988;2023-03-14T20:39:17;2.60;1.00
16388;DHT22;8303;53.446;9.988;2023-03-14T20:41:45;2.40;1.00
16388;DHT22;8303;53.446;9.988;2023-03-14T20:44:13;2.10;1.00
16388;DHT22;8303;53.446;9.988;2023-03-14T20:46:40;2.00;1.00
16388;DHT22;8303;53.446;9.988;2023-03-14T20:49:08;1.80;1.00
16388;DHT22;8303;53.446;9.988;2023-03-14T20:51:35;1.70;48.80
16388;DHT22;8303;53.446;9.988;2023-03-14T20:54:02;1.60;99.90
16388;DHT22;8303;53.446;9.988;2023-03-14T20:56:29;1.50;99.90
16388;DHT22;8303;53.446;9.988;2023-03-14T20:58:56;1.50;99.90
16388;DHT22;8303;53.446;9.988;2023-03-14T21:01:24;1.30;99.90
16388;DHT22;8303;53.446;9.988;2023-03-14T21:03:51;1.20;99.90
16388;DHT22;8303;53.446;9.988;2023-03-14T21:06:18;1.20;99.90
16388;DHT22;8303;53.446;9.988;2023-03-14T21:08:46;1.20;99.90
16388;DHT22;8303;53.446;9.988;2023-03-14T21:11:13;1.20;99.90
16388;DHT22;8303;53.446;9.988;2023-03-14T21:13:40;1.20;99.90
16388;DHT22;8303;53.446;9.988;2023-03-14T21:16:07;1.20;99.90
16388;DHT22;8303;53.446;9.988;2023-03-14T21:18:35;1.20;99.90
16388;DHT22;8303;53.446;9.988;2023-03-14T21:21:03;1.20;99.90
16388;DHT22;8303;53.446;9.988;2023-03-14T21:23:30;1.20;99.90
16388;DHT22;8303;53.446;9.988;2023-03-14T21:25:59;1.30;99.90
16388;DHT22;8303;53.446;9.988;2023-03-14T21:28:27;1.30;99.90
